sensor_id;sensor_type;location;lat;lon;timestamp;temperature;humidity
44731;DHT22;30458;47.448;19.032;2022-07-29T00:09:04;26.50;67.40
44731;DHT22;30458;47.448;19.032;2022-07-29T00:19:05;26.50;67.70
44731;DHT22;30458;47.448;19.032;2022-07-29T00:29:08;26.50;67.70
44731;DHT22;30458;47.448;19.032;2022-07-29T00:39:11;26.40;67.70
44731;DHT22;30458;47.448;19.032;2022-07-29T00:49:17;26.30;67.80
44731;DHT22;30458;47.448;19.032;2022-07-29T00:59:22;26.30;68.00
44731;DHT22;30458;47.448;19.032;2022-07-29T01:09:23;26.20;68.50
44731;DHT22;30458;47.448;19.032;2022-07-29T01:29:56;26.10;68.30
44731;DHT22;30458;47.448;19.032;2022-07-29T01:39:59;26.10;68.30
44731;DHT22;30458;47.448;19.032;2022-07-29T01:50:09;26.10;68.50
44731;DHT22;30458;47.448;19.032;2022-07-29T02:00:12;26.10;68.70
44731;DHT22;30458;47.448;19.032;2022-07-29T02:10:14;26.00;68.80
44731;DHT22;30458;47.448;19.032;2022-07-29T02:20:21;26.00;68.90
44731;DHT22;30458;47.448;19.032;2022-07-29T02:30:24;26.00;69.30
44731;DHT22;30458;47.448;19.032;2022-07-29T02:40:25;25.90;69.20
44731;DHT22;30458;47.448;19.032;2022-07-29T02:50:33;26.00;70.00
44731;DHT22;30458;47.448;19.032;2022-07-29T03:00:39;25.90;69.80
44731;DHT22;30458;47.448;19.032;2022-07-29T03:10:46;25.80;70.10
44731;DHT22;30458;47.448;19.032;2022-07-29T03:20:47;25.70;70.40
44731;DHT22;30458;47.448;19.032;2022-07-29T03:30:54;25.70;70.50
44731;DHT22;30458;47.448;19.032;2022-07-29T03:40:58;25.60;70.90
44731;DHT22;30458;47.448;19.032;2022-07-29T03:51:03;25.50;71.10
44731;DHT22;30458;47.448;19.032;2022-07-29T04:01:08;25.50;71.10
44731;DHT22;30458;47.448;19.032;2022-07-29T04:11:12;25.50;71.20
44731;DHT22;30458;47.448;19.032;2022-07-29T04:21:16;25.60;71.10
44731;DHT22;30458;47.448;19.032;2022-07-29T04:31:20;25.80;71.20
44731;DHT22;30458;47.448;19.032;2022-07-29T04:41:21;25.90;71.20
44731;DHT22;30458;47.448;19.032;2022-07-29T04:51:23;26.20;71.10
44731;DHT22;30458;47.448;19.032;2022-07-29T05:01:23;26.30;70.80
44731;DHT22;30458;47.448;19.032;2022-07-29T05:11:24;26.90;70.50
44731;DHT22;30458;47.448;19.032;2022-07-29T05:21:25;27.80;69.00
44731;DHT22;30458;47.448;19.032;2022-07-29T05:31:29;28.40;68.40
44731;DHT22;30458;47.448;19.032;2022-07-29T05:41:37;29.10;66.90
44731;DHT22;30458;47.448;19.032;2022-07-29T05:51:38;29.70;65.30
44731;DHT22;30458;47.448;19.032;2022-07-29T06:01:38;29.90;63.90
44731;DHT22;30458;47.448;19.032;2022-07-29T06:11:40;30.10;63.40
44731;DHT22;30458;47.448;19.032;2022-07-29T06:21:46;29.90;63.50
44731;DHT22;30458;47.448;19.032;2022-07-29T06:31:47;29.80;63.20
44731;DHT22;30458;47.448;19.032;2022-07-29T06:41:49;30.60;62.60
44731;DHT22;30458;47.448;19.032;2022-07-29T06:51:50;31.00;62.00
44731;DHT22;30458;47.448;19.032;2022-07-29T07:01:51;31.70;60.50
44731;DHT22;30458;47.448;19.032;2022-07-29T07:11:52;31.60;60.90
44731;DHT22;30458;47.448;19.032;2022-07-29T07:21:53;31.10;61.80
44731;DHT22;30458;47.448;19.032;2022-07-29T07:31:57;30.80;62.90
44731;DHT22;30458;47.448;19.032;2022-07-29T07:41:59;30.50;63.70
44731;DHT22;30458;47.448;19.032;2022-07-29T07:51:59;30.60;63.30
44731;DHT22;30458;47.448;19.032;2022-07-29T08:02:00;30.70;63.90
44731;DHT22;30458;47.448;19.032;2022-07-29T08:12:02;30.80;64.20
44731;DHT22;30458;47.448;19.032;2022-07-29T08:22:04;31.00;63.80
44731;DHT22;30458;47.448;19.032;2022-07-29T08:32:08;31.00;63.10
44731;DHT22;30458;47.448;19.032;2022-07-29T08:42:10;31.10;63.40
44731;DHT22;30458;47.448;19.032;2022-07-29T08:52:13;31.30;63.10
44731;DHT22;30458;47.448;19.032;2022-07-29T09:02:20;31.40;62.10
44731;DHT22;30458;47.448;19.032;2022-07-29T09:12:21;31.40;62.10
44731;DHT22;30458;47.448;19.032;2022-07-29T09:22:29;31.40;62.60
44731;DHT22;30458;47.448;19.032;2022-07-29T09:32:57;31.30;61.60
44731;DHT22;30458;47.448;19.032;2022-07-29T09:43:12;31.40;61.30
44731;DHT22;30458;47.448;19.032;2022-07-29T09:53:36;31.70;63.40
44731;DHT22;30458;47.448;19.032;2022-07-29T10:03:51;31.80;60.10
44731;DHT22;30458;47.448;19.032;2022-07-29T10:13:55;31.80;60.30
44731;DHT22;30458;47.448;19.032;2022-07-29T10:23:57;31.70;59.90
44731;DHT22;30458;47.448;19.032;2022-07-29T10:34:16;31.90;58.90
44731;DHT22;30458;47.448;19.032;2022-07-29T10:44:24;31.70;58.70
44731;DHT22;30458;47.448;19.032;2022-07-29T11:14:57;31.60;55.80
44731;DHT22;30458;47.448;19.032;2022-07-29T11:25:16;31.80;58.10
44731;DHT22;30458;47.448;19.032;2022-07-29T11:35:23;31.80;56.70
44731;DHT22;30458;47.448;19.032;2022-07-29T11:45:31;31.70;55.80
44731;DHT22;30458;47.448;19.032;2022-07-29T11:55:44;31.70;56.90
44731;DHT22;30458;47.448;19.032;2022-07-29T12:05:45;32.00;56.80
44731;DHT22;30458;47.448;19.032;2022-07-29T12:15:54;31.90;55.60
44731;DHT22;30458;47.448;19.032;2022-07-29T12:25:57;31.90;56.70
44731;DHT22;30458;47.448;19.032;2022-07-29T12:36:00;32.00;56.00
44731;DHT22;30458;47.448;19.032;2022-07-29T12:46:13;32.00;56.10
44731;DHT22;30458;47.448;19.032;2022-07-29T12:56:18;32.00;56.30
44731;DHT22;30458;47.448;19.032;2022-07-29T13:26:56;31.90;55.60
44731;DHT22;30458;47.448;19.032;2022-07-29T13:36:57;32.00;56.50
44731;DHT22;30458;47.448;19.032;2022-07-29T13:46:57;32.20;56.30
44731;DHT22;30458;47.448;19.032;2022-07-29T13:57:03;32.10;55.60
44731;DHT22;30458;47.448;19.032;2022-07-29T14:07:07;32.00;55.80
44731;DHT22;30458;47.448;19.032;2022-07-29T14:17:07;32.00;55.90
44731;DHT22;30458;47.448;19.032;2022-07-29T14:27:08;32.00;56.20
44731;DHT22;30458;47.448;19.032;2022-07-29T14:37:09;32.10;56.60
44731;DHT22;30458;47.448;19.032;2022-07-29T14:47:10;32.00;55.70
44731;DHT22;30458;47.448;19.032;2022-07-29T14:57:11;32.10;54.60
44731;DHT22;30458;47.448;19.032;2022-07-29T15:07:14;32.20;55.10
44731;DHT22;30458;47.448;19.032;2022-07-29T15:17:16;32.00;55.30
44731;DHT22;30458;47.448;19.032;2022-07-29T15:27:19;32.10;55.30
44731;DHT22;30458;47.448;19.032;2022-07-29T15:37:20;32.00;55.80
44731;DHT22;30458;47.448;19.032;2022-07-29T15:47:21;32.00;55.60
44731;DHT22;30458;47.448;19.032;2022-07-29T15:57:25;32.00;56.30
44731;DHT22;30458;47.448;19.032;2022-07-29T16:07:32;32.00;54.80
44731;DHT22;30458;47.448;19.032;2022-07-29T16:17:36;32.00;54.40
44731;DHT22;30458;47.448;19.032;2022-07-29T16:27:43;32.10;55.00
44731;DHT22;30458;47.448;19.032;2022-07-29T16:37:43;32.00;55.00
44731;DHT22;30458;47.448;19.032;2022-07-29T16:47:44;32.00;55.20
44731;DHT22;30458;47.448;19.032;2022-07-29T16:57:47;32.00;55.30
44731;DHT22;30458;47.448;19.032;2022-07-29T17:07:48;32.00;55.10
44731;DHT22;30458;47.448;19.032;2022-07-29T17:17:49;31.90;55.80
44731;DHT22;30458;47.448;19.032;2022-07-29T17:27:50;31.80;57.30
44731;DHT22;30458;47.448;19.032;2022-07-29T17:37:55;31.60;57.40
44731;DHT22;30458;47.448;19.032;2022-07-29T17:47:56;31.40;58.20
44731;DHT22;30458;47.448;19.032;2022-07-29T17:57:59;31.30;57.70
44731;DHT22;30458;47.448;19.032;2022-07-29T18:08:03;31.10;58.90
44731;DHT22;30458;47.448;19.032;2022-07-29T18:18:04;30.90;61.40
44731;DHT22;30458;47.448;19.032;2022-07-29T18:28:05;30.80;61.60
44731;DHT22;30458;47.448;19.032;2022-07-29T18:38:06;30.60;62.60
44731;DHT22;30458;47.448;19.032;2022-07-29T18:48:07;30.30;63.20
44731;DHT22;30458;47.448;19.032;2022-07-29T18:58:08;30.10;63.30
44731;DHT22;30458;47.448;19.032;2022-07-29T19:08:16;30.00;63.70
44731;DHT22;30458;47.448;19.032;2022-07-29T19:18:20;29.90;63.50
44731;DHT22;30458;47.448;19.032;2022-07-29T19:28:21;29.70;61.80
44731;DHT22;30458;47.448;19.032;2022-07-29T19:38:22;29.70;61.70
44731;DHT22;30458;47.448;19.032;2022-07-29T19:48:25;29.60;62.70
44731;DHT22;30458;47.448;19.032;2022-07-29T19:58:32;29.50;64.30
44731;DHT22;30458;47.448;19.032;2022-07-29T20:08:37;29.30;64.10
44731;DHT22;30458;47.448;19.032;2022-07-29T20:18:38;29.00;64.60
44731;DHT22;30458;47.448;19.032;2022-07-29T20:28:39;28.90;65.30
44731;DHT22;30458;47.448;19.032;2022-07-29T20:38:42;28.60;66.50
44731;DHT22;30458;47.448;19.032;2022-07-29T20:48:46;28.50;67.60
44731;DHT22;30458;47.448;19.032;2022-07-29T20:58:50;28.30;68.60
44731;DHT22;30458;47.448;19.032;2022-07-29T21:08:53;28.00;69.50
44731;DHT22;30458;47.448;19.032;2022-07-29T21:18:57;27.80;70.30
44731;DHT22;30458;47.448;19.032;2022-07-29T21:29:00;27.70;71.00
44731;DHT22;30458;47.448;19.032;2022-07-29T21:39:01;27.50;71.70
44731;DHT22;30458;47.448;19.032;2022-07-29T21:49:09;27.50;72.10
44731;DHT22;30458;47.448;19.032;2022-07-29T21:59:12;27.10;72.90
44731;DHT22;30458;47.448;19.032;2022-07-29T22:09:13;27.00;73.70
44731;DHT22;30458;47.448;19.032;2022-07-29T22:19:18;26.80;74.50
44731;DHT22;30458;47.448;19.032;2022-07-29T22:29:18;26.60;75.20
44731;DHT22;30458;47.448;19.032;2022-07-29T22:39:22;26.40;76.20
44731;DHT22;30458;47.448;19.032;2022-07-29T22:49:23;26.30;76.80
44731;DHT22;30458;47.448;19.032;2022-07-29T22:59:23;26.20;77.50
44731;DHT22;30458;47.448;19.032;2022-07-29T23:09:24;26.10;78.20
44731;DHT22;30458;47.448;19.032;2022-07-29T23:19:28;26.10;78.60
44731;DHT22;30458;47.448;19.032;2022-07-29T23:29:31;25.90;78.90
44731;DHT22;30458;47.448;19.032;2022-07-29T23:39:32;26.00;79.00
44731;DHT22;30458;47.448;19.032;2022-07-29T23:49:33;25.90;79.30
44731;DHT22;30458;47.448;19.032;2022-07-29T23:59:34;25.90;79.30
